createdAt,value
2023-02-01T00:01:30.991Z,3.39
2023-02-01T00:03:02.887Z,3.33
2023-02-01T00:04:34.787Z,3.33
2023-02-01T00:06:06.823Z,3.32
2023-02-01T00:07:38.761Z,3.31
2023-02-01T00:10:50.610Z,3.31
2023-02-01T00:12:22.494Z,3.31
2023-02-01T00:13:56.844Z,3.31
2023-02-01T00:15:28.673Z,3.24
2023-02-01T00:17:00.596Z,3.24
2023-02-01T00:18:32.713Z,3.27
2023-02-01T00:20:04.774Z,3.25
2023-02-01T00:21:36.614Z,3.22
2023-02-01T00:23:09.901Z,3.20
2023-02-01T00:24:41.933Z,3.27
2023-02-01T00:26:17.942Z,3.27
2023-02-01T00:27:50.568Z,3.23
2023-02-01T00:29:22.424Z,3.15
2023-02-01T00:30:58.149Z,3.14
2023-02-01T00:32:29.987Z,3.20
2023-02-01T00:34:01.816Z,3.21
2023-02-01T00:35:35.107Z,3.18
2023-02-01T00:37:09.623Z,3.24
2023-02-01T00:38:41.694Z,3.21
2023-02-01T00:40:13.728Z,3.23
2023-02-01T00:41:45.545Z,3.18
2023-02-01T00:43:17.422Z,3.17
2023-02-01T00:44:49.423Z,3.18
2023-02-01T00:46:21.573Z,3.17
2023-02-01T00:47:53.397Z,3.15
2023-02-01T00:49:25.518Z,3.21
2023-02-01T00:51:00.673Z,3.21
2023-02-01T00:52:32.606Z,3.21
2023-02-01T00:54:04.895Z,3.23
2023-02-01T00:55:36.769Z,3.21
2023-02-01T00:57:08.562Z,3.20
2023-02-01T00:58:40.491Z,3.16
2023-02-01T01:00:12.540Z,3.13
2023-02-01T01:01:44.834Z,3.03
2023-02-01T01:03:19.828Z,3.09
2023-02-01T01:04:51.953Z,3.12
2023-02-01T01:06:25.329Z,3.13
2023-02-01T01:07:57.193Z,3.16
2023-02-01T01:09:29.125Z,3.12
2023-02-01T01:11:05.127Z,3.14
2023-02-01T01:12:36.970Z,3.09
2023-02-01T01:14:10.625Z,3.12
2023-02-01T01:15:42.527Z,3.08
2023-02-01T01:17:14.433Z,3.13
2023-02-01T01:18:46.331Z,3.17
2023-02-01T01:20:18.571Z,3.16
2023-02-01T01:21:50.499Z,3.17
2023-02-01T01:25:01.666Z,3.15
2023-02-01T01:26:33.550Z,3.16
2023-02-01T01:28:05.415Z,3.16
2023-02-01T01:29:37.513Z,3.18
2023-02-01T01:31:10.771Z,3.13
2023-02-01T01:32:42.718Z,3.14
2023-02-01T01:34:14.555Z,3.10
2023-02-01T01:35:46.603Z,3.13
2023-02-01T01:37:18.637Z,3.14
2023-02-01T01:38:50.633Z,3.15
2023-02-01T01:40:22.759Z,3.15
2023-02-01T01:41:54.892Z,3.16
2023-02-01T01:43:26.778Z,3.14
2023-02-01T01:44:58.755Z,3.17
2023-02-01T01:46:33.823Z,3.24
2023-02-01T01:48:08.035Z,3.17
2023-02-01T01:49:39.856Z,3.17
2023-02-01T01:51:12.265Z,3.19
2023-02-01T01:54:21.506Z,3.18
2023-02-01T01:55:53.412Z,3.19
2023-02-01T01:57:28.987Z,3.15
2023-02-01T01:59:00.890Z,3.24
2023-02-01T02:00:33.207Z,3.27
2023-02-01T02:02:05.156Z,3.18
2023-02-01T02:03:39.498Z,3.21
2023-02-01T02:05:11.351Z,3.23
2023-02-01T02:06:51.428Z,3.19
2023-02-01T02:08:23.257Z,3.17
2023-02-01T02:10:01.043Z,3.15
2023-02-01T02:11:33.292Z,3.14
2023-02-01T02:13:05.175Z,3.17
2023-02-01T02:14:36.944Z,3.14
2023-02-01T02:16:11.644Z,3.20
2023-02-01T02:17:51.109Z,3.18
2023-02-01T02:19:41.768Z,3.17
2023-02-01T02:21:24.993Z,3.14
2023-02-01T02:22:59.737Z,3.12
2023-02-01T02:24:46.615Z,3.09
2023-02-01T02:26:21.413Z,3.12
2023-02-01T02:28:11.779Z,3.11
2023-02-01T02:29:51.475Z,3.15
2023-02-01T02:31:42.523Z,3.19
2023-02-01T02:33:17.483Z,3.13
2023-02-01T02:34:57.162Z,3.14
2023-02-01T02:36:35.546Z,3.16
2023-02-01T02:38:23.945Z,3.17
2023-02-01T02:40:01.497Z,3.10
2023-02-01T02:41:52.920Z,3.05
2023-02-01T02:43:45.115Z,3.04
2023-02-01T02:45:58.629Z,2.99
2023-02-01T02:47:50.702Z,3.09
2023-02-01T02:49:37.829Z,3.11
2023-02-01T02:51:48.312Z,3.04
2023-02-01T02:53:42.745Z,3.00
2023-02-01T02:55:14.602Z,2.91
2023-02-01T02:57:05.167Z,2.93
2023-02-01T02:58:55.783Z,2.96
2023-02-01T03:00:49.552Z,2.94
2023-02-01T03:02:39.868Z,2.89
2023-02-01T03:04:15.812Z,2.95
2023-02-01T03:05:51.828Z,2.92
2023-02-01T03:07:42.116Z,2.92
2023-02-01T03:09:15.375Z,2.91
2023-02-01T03:11:06.729Z,2.90
2023-02-01T03:12:56.802Z,2.86
2023-02-01T03:14:28.687Z,2.81
2023-02-01T03:16:00.607Z,2.77
2023-02-01T03:17:34.189Z,2.74
2023-02-01T03:19:10.831Z,2.71
2023-02-01T03:20:44.262Z,2.71
2023-02-01T03:23:48.704Z,2.63
2023-02-01T03:25:23.482Z,2.59
2023-02-01T03:26:56.276Z,2.51
2023-02-01T03:28:28.645Z,2.44
2023-02-01T03:30:02.329Z,2.35
2023-02-01T03:31:34.223Z,2.30
2023-02-01T03:33:12.747Z,2.17
2023-02-01T03:34:44.645Z,2.15
2023-02-01T03:36:17.768Z,2.12
2023-02-01T03:37:49.536Z,2.02
2023-02-01T03:39:33.155Z,1.86
2023-02-01T03:41:14.206Z,1.71
2023-02-01T03:42:47.673Z,1.54
2023-02-01T03:44:23.969Z,1.40
2023-02-01T03:45:57.115Z,1.28
2023-02-01T03:47:29.520Z,1.18
2023-02-01T03:49:02.619Z,1.13
2023-02-01T03:50:35.057Z,1.08
2023-02-01T03:53:40.817Z,1.04
2023-02-01T03:55:13.950Z,1.00
2023-02-01T03:56:46.105Z,0.97
2023-02-01T03:58:19.032Z,0.94
2023-02-01T03:59:50.998Z,0.94
2023-02-01T04:01:22.929Z,0.96
2023-02-01T04:02:54.760Z,0.96
2023-02-01T04:04:26.780Z,0.99
2023-02-01T04:05:58.660Z,1.00
2023-02-01T04:07:30.443Z,1.00
2023-02-01T04:09:02.259Z,0.94
2023-02-01T04:10:36.591Z,0.91
2023-02-01T04:12:08.457Z,0.90
2023-02-01T04:13:40.886Z,0.87
2023-02-01T04:15:12.762Z,0.83
2023-02-01T04:16:44.675Z,0.87
2023-02-01T04:18:16.560Z,0.85
2023-02-01T04:19:49.699Z,0.78
2023-02-01T04:22:58.281Z,0.71
2023-02-01T04:24:30.146Z,0.69
2023-02-01T04:26:02.699Z,0.65
2023-02-01T04:27:34.788Z,0.62
2023-02-01T04:29:10.085Z,0.69
2023-02-01T04:30:42.072Z,0.86
2023-02-01T04:32:13.977Z,1.08
2023-02-01T04:33:45.786Z,1.23
2023-02-01T04:35:19.200Z,1.34
2023-02-01T04:36:51.135Z,1.46
2023-02-01T04:38:22.979Z,1.57
2023-02-01T04:39:55.057Z,1.69
2023-02-01T04:41:26.976Z,1.78
2023-02-01T04:42:58.978Z,1.88
2023-02-01T04:44:30.971Z,1.95
2023-02-01T04:46:03.536Z,2.03
2023-02-01T04:47:35.608Z,2.09
2023-02-01T04:49:07.523Z,2.14
2023-02-01T04:52:16.611Z,2.22
2023-02-01T04:53:48.389Z,2.26
2023-02-01T04:55:20.254Z,2.29
2023-02-01T04:56:52.123Z,2.30
2023-02-01T04:58:23.964Z,2.29
2023-02-01T04:59:55.814Z,2.25
2023-02-01T05:01:27.631Z,2.17
2023-02-01T05:02:59.428Z,2.01
2023-02-01T05:04:31.489Z,1.90
2023-02-01T05:06:05.303Z,1.80
2023-02-01T05:07:37.164Z,1.70
2023-02-01T05:09:08.984Z,1.66
2023-02-01T05:10:40.801Z,1.61
2023-02-01T05:12:31.266Z,1.52
2023-02-01T05:14:05.293Z,1.39
2023-02-01T05:15:37.140Z,1.29
2023-02-01T05:17:09.039Z,1.20
2023-02-01T05:18:40.896Z,1.10
2023-02-01T05:21:45.556Z,0.92
2023-02-01T05:23:17.360Z,0.86
2023-02-01T05:24:49.199Z,0.80
2023-02-01T05:26:21.094Z,0.76
2023-02-01T05:27:52.951Z,0.76
2023-02-01T05:29:24.815Z,0.78
2023-02-01T05:30:56.717Z,0.80
2023-02-01T05:32:28.815Z,0.79
2023-02-01T05:34:00.743Z,0.80
2023-02-01T05:35:32.777Z,0.80
2023-02-01T05:37:04.664Z,0.81
2023-02-01T05:38:36.517Z,0.79
2023-02-01T05:40:08.515Z,0.76
2023-02-01T05:41:40.364Z,0.73
2023-02-01T05:43:12.215Z,0.67
2023-02-01T05:44:44.148Z,0.63
2023-02-01T05:46:16.053Z,0.58
2023-02-01T05:47:47.867Z,0.58
2023-02-01T05:49:19.675Z,0.55
2023-02-01T05:50:51.771Z,0.54
2023-02-01T05:52:23.671Z,0.51
2023-02-01T05:53:55.570Z,0.50
2023-02-01T05:55:27.389Z,0.52
2023-02-01T05:56:59.240Z,0.55
2023-02-01T05:58:31.414Z,0.50
2023-02-01T06:00:04.065Z,0.44
2023-02-01T06:01:35.885Z,0.36
2023-02-01T06:03:07.897Z,0.36
2023-02-01T06:04:40.480Z,0.37
2023-02-01T06:06:12.370Z,0.40
2023-02-01T06:07:44.230Z,0.47
2023-02-01T06:09:16.082Z,0.50
2023-02-01T06:10:47.895Z,0.54
2023-02-01T06:12:19.761Z,0.54
2023-02-01T06:13:51.548Z,0.58
2023-02-01T06:15:23.443Z,0.63
2023-02-01T06:16:56.211Z,0.67
2023-02-01T06:18:28.144Z,0.72
2023-02-01T06:20:00.089Z,0.75
2023-02-01T06:21:31.981Z,0.78
2023-02-01T06:23:03.856Z,0.80
2023-02-01T06:24:35.880Z,0.83
2023-02-01T06:26:09.181Z,0.85
2023-02-01T06:27:41.129Z,0.86
2023-02-01T06:29:13.090Z,0.92
2023-02-01T06:30:47.371Z,0.97
2023-02-01T06:32:19.467Z,1.08
2023-02-01T06:33:51.407Z,1.20
2023-02-01T06:35:23.381Z,1.36
2023-02-01T06:36:56.322Z,1.51
2023-02-01T06:38:28.163Z,1.66
2023-02-01T06:40:00.106Z,1.77
2023-02-01T06:41:31.992Z,1.88
2023-02-01T06:43:03.974Z,1.98
2023-02-01T06:44:36.039Z,2.11
2023-02-01T06:46:08.939Z,2.21
2023-02-01T06:47:40.907Z,2.32
2023-02-01T06:50:51.928Z,2.53
2023-02-01T06:52:23.800Z,2.64
2023-02-01T06:53:55.681Z,2.76
2023-02-01T06:55:29.963Z,2.88
2023-02-01T06:57:01.765Z,2.97
2023-02-01T06:58:34.214Z,3.02
2023-02-01T07:00:06.572Z,3.10
2023-02-01T07:01:38.794Z,3.19
2023-02-01T07:03:10.815Z,3.29
2023-02-01T07:04:42.748Z,3.37
2023-02-01T07:06:14.712Z,3.43
2023-02-01T07:07:46.667Z,3.52
2023-02-01T07:09:18.588Z,3.60
2023-02-01T07:10:50.488Z,3.65
2023-02-01T07:12:22.331Z,3.71
2023-02-01T07:13:54.293Z,3.76
2023-02-01T07:15:26.149Z,3.80
2023-02-01T07:16:58.034Z,3.87
2023-02-01T07:20:03.061Z,4.01
2023-02-01T07:21:35.086Z,4.06
2023-02-01T07:23:06.986Z,4.09
2023-02-01T07:24:38.851Z,4.12
2023-02-01T07:26:12.279Z,4.19
2023-02-01T07:27:44.114Z,4.22
2023-02-01T07:29:16.080Z,4.25
2023-02-01T07:30:52.159Z,4.25
2023-02-01T07:32:24.133Z,4.32
2023-02-01T07:33:57.611Z,4.34
2023-02-01T07:35:29.762Z,4.38
2023-02-01T07:37:01.566Z,4.44
2023-02-01T07:38:33.701Z,4.46
2023-02-01T07:40:05.837Z,4.49
2023-02-01T07:41:37.874Z,4.55
2023-02-01T07:43:09.915Z,4.58
2023-02-01T07:44:42.005Z,4.59
2023-02-01T07:46:14.008Z,4.63
2023-02-01T07:47:45.953Z,4.68
2023-02-01T07:49:18.877Z,4.69
2023-02-01T07:50:58.127Z,4.71
2023-02-01T07:52:30.441Z,4.76
2023-02-01T07:54:02.332Z,4.84
2023-02-01T07:55:36.090Z,4.81
2023-02-01T07:57:10.097Z,4.90
2023-02-01T07:58:44.973Z,4.99
2023-02-01T08:00:35.373Z,5.03
2023-02-01T08:02:07.292Z,5.11
2023-02-01T08:03:39.246Z,5.07
2023-02-01T08:05:10.997Z,5.20
2023-02-01T08:06:45.973Z,5.25
2023-02-01T08:08:17.819Z,5.24
2023-02-01T08:09:49.703Z,5.29
2023-02-01T08:11:24.808Z,5.33
2023-02-01T08:12:59.443Z,5.37
2023-02-01T08:14:31.302Z,5.35
2023-02-01T08:16:04.183Z,5.36
2023-02-01T08:19:08.868Z,5.40
2023-02-01T08:20:42.801Z,5.40
2023-02-01T08:22:14.608Z,5.43
2023-02-01T08:23:46.475Z,5.45
2023-02-01T08:25:18.493Z,5.42
2023-02-01T08:26:50.406Z,5.41
2023-02-01T08:28:22.379Z,5.38
2023-02-01T08:29:55.345Z,5.44
2023-02-01T08:31:28.134Z,5.42
2023-02-01T08:33:00.168Z,5.40
2023-02-01T08:34:33.587Z,5.37
2023-02-01T08:36:06.888Z,5.44
2023-02-01T08:37:38.857Z,5.47
2023-02-01T08:39:11.595Z,5.46
2023-02-01T08:40:43.505Z,5.42
2023-02-01T08:42:34.034Z,5.47
2023-02-01T08:44:05.977Z,5.49
2023-02-01T08:45:37.816Z,5.50
2023-02-01T08:48:43.457Z,5.52
2023-02-01T08:50:15.710Z,5.54
2023-02-01T08:51:47.511Z,5.66
2023-02-01T08:53:19.757Z,5.69
2023-02-01T08:54:51.599Z,5.71
2023-02-01T08:56:23.702Z,5.77
2023-02-01T08:57:55.606Z,5.85
2023-02-01T08:59:28.651Z,5.88
2023-02-01T09:01:06.229Z,5.97
2023-02-01T09:02:38.090Z,6.06
2023-02-01T09:04:09.929Z,6.17
2023-02-01T09:05:49.496Z,6.27
2023-02-01T09:07:22.137Z,6.36
2023-02-01T09:08:54.317Z,6.39
2023-02-01T09:10:34.594Z,6.38
2023-02-01T09:12:06.905Z,6.47
2023-02-01T09:13:38.720Z,6.54
2023-02-01T09:15:10.731Z,6.58
2023-02-01T09:16:42.630Z,6.62
2023-02-01T09:18:14.642Z,6.66
2023-02-01T09:19:46.726Z,6.70
2023-02-01T09:22:59.076Z,6.73
2023-02-01T09:24:30.932Z,6.77
2023-02-01T09:26:03.224Z,6.79
2023-02-01T09:27:35.568Z,6.81
2023-02-01T09:29:13.512Z,6.84
2023-02-01T09:30:45.566Z,6.81
2023-02-01T09:32:18.243Z,6.81
2023-02-01T09:33:50.214Z,6.82
2023-02-01T09:35:22.437Z,6.86
2023-02-01T09:36:54.828Z,6.87
2023-02-01T09:38:29.675Z,6.98
2023-02-01T09:40:01.517Z,7.03
2023-02-01T09:41:33.368Z,7.05
2023-02-01T09:43:08.392Z,7.03
2023-02-01T09:44:55.210Z,7.03
2023-02-01T09:46:31.217Z,7.09
2023-02-01T09:48:13.844Z,7.15
2023-02-01T09:49:57.309Z,7.17
2023-02-01T09:51:30.219Z,7.19
2023-02-01T09:53:06.779Z,7.23
2023-02-01T09:55:02.030Z,7.23
2023-02-01T09:56:57.192Z,7.22
2023-02-01T09:58:31.518Z,7.26
2023-02-01T10:00:07.405Z,7.28
2023-02-01T10:01:39.547Z,7.28
2023-02-01T10:03:14.605Z,7.30
2023-02-01T10:04:46.578Z,7.31
2023-02-01T10:06:27.873Z,7.34
2023-02-01T10:08:10.359Z,7.32
2023-02-01T10:10:00.785Z,7.36
2023-02-01T10:11:51.275Z,7.41
2023-02-01T10:13:35.362Z,7.44
2023-02-01T10:15:13.171Z,7.34
2023-02-01T10:16:48.208Z,7.28
2023-02-01T10:18:26.215Z,7.33
2023-02-01T10:20:00.906Z,7.31
2023-02-01T10:21:45.185Z,7.34
2023-02-01T10:23:34.645Z,7.39
2023-02-01T10:25:06.935Z,7.39
2023-02-01T10:26:39.177Z,7.47
2023-02-01T10:28:14.133Z,7.45
2023-02-01T10:29:47.229Z,7.53
2023-02-01T10:31:19.897Z,7.53
2023-02-01T10:33:12.172Z,7.55
2023-02-01T10:34:44.849Z,7.59
2023-02-01T10:36:25.571Z,7.60
2023-02-01T10:37:58.387Z,7.60
2023-02-01T10:39:30.308Z,7.66
2023-02-01T10:41:06.228Z,7.70
2023-02-01T10:42:38.041Z,7.74
2023-02-01T10:44:17.162Z,7.74
2023-02-01T10:45:48.998Z,7.87
2023-02-01T10:47:21.059Z,7.95
2023-02-01T10:48:54.269Z,8.07
2023-02-01T10:50:40.547Z,8.14
2023-02-01T10:52:20.080Z,8.20
2023-02-01T10:53:54.476Z,8.09
2023-02-01T10:55:40.081Z,8.17
2023-02-01T10:57:33.315Z,8.17
2023-02-01T10:59:06.048Z,8.18
2023-02-01T11:00:57.917Z,8.20
2023-02-01T11:02:34.085Z,8.21
2023-02-01T11:04:07.217Z,8.24
2023-02-01T11:05:45.669Z,8.38
2023-02-01T11:07:26.726Z,8.39
2023-02-01T11:08:59.650Z,8.46
2023-02-01T11:10:37.739Z,8.49
2023-02-01T11:12:30.165Z,8.43
2023-02-01T11:14:05.679Z,8.50
2023-02-01T11:15:37.597Z,8.56
2023-02-01T11:17:15.392Z,8.56
2023-02-01T11:18:48.130Z,8.54
2023-02-01T11:20:21.393Z,8.48
2023-02-01T11:21:54.174Z,8.51
2023-02-01T11:23:26.740Z,8.60
2023-02-01T11:24:58.573Z,8.64
2023-02-01T11:26:30.501Z,8.58
2023-02-01T11:28:02.375Z,8.58
2023-02-01T11:29:36.936Z,8.47
2023-02-01T11:31:10.914Z,8.45
2023-02-01T11:32:43.203Z,8.44
2023-02-01T11:34:21.372Z,8.45
2023-02-01T11:35:53.291Z,8.48
2023-02-01T11:37:25.259Z,8.55
2023-02-01T11:39:11.150Z,8.63
2023-02-01T11:40:43.109Z,8.72
2023-02-01T11:42:16.033Z,8.84
2023-02-01T11:43:59.174Z,8.84
2023-02-01T11:45:32.001Z,8.95
2023-02-01T11:47:22.713Z,9.05
2023-02-01T11:50:44.189Z,9.30
2023-02-01T11:52:22.107Z,9.35
2023-02-01T11:54:03.251Z,9.35
2023-02-01T11:55:44.466Z,9.23
2023-02-01T11:57:35.354Z,9.26
2023-02-01T11:59:13.391Z,9.23
2023-02-01T12:00:50.087Z,9.24
2023-02-01T12:02:27.902Z,9.32
2023-02-01T12:04:15.716Z,9.31
2023-02-01T12:05:47.731Z,9.39
2023-02-01T12:07:37.528Z,9.51
2023-02-01T12:09:09.571Z,9.59
2023-02-01T12:10:41.635Z,9.61
2023-02-01T12:12:32.211Z,9.70
2023-02-01T12:14:07.994Z,9.65
2023-02-01T12:15:58.764Z,9.67
2023-02-01T12:17:49.492Z,9.56
2023-02-01T12:19:25.751Z,9.58
2023-02-01T12:21:16.046Z,9.60
2023-02-01T12:22:54.741Z,9.49
2023-02-01T12:24:36.024Z,9.56
2023-02-01T12:26:23.036Z,9.64
2023-02-01T12:28:04.616Z,9.63
2023-02-01T12:29:56.963Z,9.70
2023-02-01T12:31:28.870Z,9.71
2023-02-01T12:33:06.644Z,9.84
2023-02-01T12:34:38.719Z,9.92
2023-02-01T12:36:12.482Z,9.85
2023-02-01T12:37:46.808Z,9.97
2023-02-01T12:39:25.632Z,9.91
2023-02-01T12:41:10.053Z,9.80
2023-02-01T12:42:43.622Z,9.81
2023-02-01T12:44:33.708Z,9.76
2023-02-01T12:46:10.308Z,9.73
2023-02-01T12:48:11.714Z,9.69
2023-02-01T12:50:04.001Z,9.65
2023-02-01T12:51:37.083Z,9.69
2023-02-01T12:54:50.793Z,9.64
2023-02-01T12:56:24.314Z,9.72
2023-02-01T12:58:08.731Z,9.66
2023-02-01T13:00:03.161Z,9.76
2023-02-01T13:01:42.749Z,9.79
2023-02-01T13:03:26.913Z,9.78
2023-02-01T13:05:05.173Z,9.69
2023-02-01T13:06:39.229Z,9.48
2023-02-01T13:08:16.128Z,9.46
2023-02-01T13:09:55.351Z,9.46
2023-02-01T13:11:27.197Z,9.43
2023-02-01T13:13:05.817Z,9.46
2023-02-01T13:14:43.867Z,9.41
2023-02-01T13:16:17.390Z,9.30
2023-02-01T13:17:50.827Z,9.30
2023-02-01T13:19:48.162Z,9.35
2023-02-01T13:21:21.934Z,9.38
2023-02-01T13:24:32.909Z,9.21
2023-02-01T13:26:05.041Z,9.17
2023-02-01T13:27:36.969Z,9.10
2023-02-01T13:29:10.323Z,8.94
2023-02-01T13:30:54.153Z,8.87
2023-02-01T13:33:50.754Z,8.91
2023-02-01T13:34:43.886Z,8.88
2023-02-01T13:36:19.283Z,8.81
2023-02-01T13:37:54.198Z,8.89
2023-02-01T13:39:29.154Z,8.88
2023-02-01T13:41:19.529Z,8.86
2023-02-01T13:42:51.441Z,8.80
2023-02-01T13:44:34.196Z,8.76
2023-02-01T13:46:07.314Z,8.74
2023-02-01T13:47:42.546Z,8.79
2023-02-01T13:49:21.884Z,8.76
2023-02-01T13:50:55.251Z,8.74
2023-02-01T13:52:30.190Z,8.73
2023-02-01T13:54:02.129Z,8.64
2023-02-01T13:55:35.361Z,8.64
2023-02-01T13:57:08.215Z,8.72
2023-02-01T13:58:41.302Z,8.74
2023-02-01T14:00:35.123Z,8.68
2023-02-01T14:02:26.254Z,8.65
2023-02-01T14:04:08.221Z,8.61
2023-02-01T14:05:40.104Z,8.60
2023-02-01T14:07:18.570Z,8.63
2023-02-01T14:09:11.431Z,8.63
2023-02-01T14:10:49.076Z,8.57
2023-02-01T14:12:39.633Z,8.57
2023-02-01T14:14:17.353Z,8.57
2023-02-01T14:16:04.951Z,8.58
2023-02-01T14:17:37.152Z,8.55
2023-02-01T14:19:10.481Z,8.50
2023-02-01T14:20:45.092Z,8.51
2023-02-01T14:22:25.487Z,8.53
2023-02-01T14:24:19.862Z,8.48
2023-02-01T14:26:02.036Z,8.48
2023-02-01T14:27:36.190Z,8.35
2023-02-01T14:29:20.708Z,8.37
2023-02-01T14:30:55.586Z,8.36
2023-02-01T14:32:35.112Z,8.32
2023-02-01T14:34:12.737Z,8.34
2023-02-01T14:35:44.709Z,8.31
2023-02-01T14:37:19.238Z,8.34
2023-02-01T14:38:51.621Z,8.30
2023-02-01T14:40:27.948Z,8.31
2023-02-01T14:42:07.016Z,8.35
2023-02-01T14:43:54.371Z,8.38
2023-02-01T14:45:28.252Z,8.32
2023-02-01T14:47:06.122Z,8.31
2023-02-01T14:48:37.954Z,8.28
2023-02-01T14:50:28.860Z,8.30
2023-02-01T14:52:01.283Z,8.26
2023-02-01T14:53:36.057Z,8.30
2023-02-01T14:55:08.425Z,8.28
2023-02-01T14:56:40.338Z,8.22
2023-02-01T14:58:26.960Z,8.22
2023-02-01T15:00:07.666Z,8.16
2023-02-01T15:01:40.758Z,8.15
2023-02-01T15:03:15.442Z,8.11
2023-02-01T15:04:47.331Z,8.09
2023-02-01T15:06:29.673Z,8.09
2023-02-01T15:08:04.784Z,8.04
2023-02-01T15:09:38.372Z,7.99
2023-02-01T15:11:12.611Z,7.96
2023-02-01T15:12:47.948Z,7.94
2023-02-01T15:14:19.831Z,7.86
2023-02-01T15:16:01.744Z,7.84
2023-02-01T15:17:36.551Z,7.79
2023-02-01T15:19:10.519Z,7.81
2023-02-01T15:20:47.035Z,7.76
2023-02-01T15:22:30.604Z,7.76
2023-02-01T15:24:22.360Z,7.74
2023-02-01T15:25:54.408Z,7.72
2023-02-01T15:27:26.899Z,7.67
2023-02-01T15:28:59.336Z,7.67
2023-02-01T15:30:32.655Z,7.63
2023-02-01T15:32:06.198Z,7.63
2023-02-01T15:33:38.283Z,7.59
2023-02-01T15:35:28.528Z,7.60
2023-02-01T15:37:05.565Z,7.58
2023-02-01T15:38:44.314Z,7.53
2023-02-01T15:40:23.309Z,7.58
2023-02-01T15:41:59.225Z,7.56
2023-02-01T15:43:32.185Z,7.56
2023-02-01T15:45:04.313Z,7.55
2023-02-01T15:46:43.917Z,7.50
2023-02-01T15:48:18.300Z,7.49
2023-02-01T15:49:56.912Z,7.49
2023-02-01T15:51:30.876Z,7.52
2023-02-01T15:53:02.680Z,7.47
2023-02-01T15:54:45.623Z,7.48
2023-02-01T15:56:17.675Z,7.43
2023-02-01T15:57:49.659Z,7.43
2023-02-01T15:59:25.691Z,7.43
2023-02-01T16:01:02.931Z,7.44
2023-02-01T16:02:40.254Z,7.40
2023-02-01T16:04:15.125Z,7.39
2023-02-01T16:05:47.536Z,7.37
2023-02-01T16:07:26.406Z,7.33
2023-02-01T16:09:03.073Z,7.36
2023-02-01T16:10:39.732Z,7.33
2023-02-01T16:12:25.746Z,7.35
2023-02-01T16:14:03.230Z,7.30
2023-02-01T16:15:35.209Z,7.30
2023-02-01T16:17:07.102Z,7.32
2023-02-01T16:18:38.956Z,7.21
2023-02-01T16:20:11.092Z,7.23
2023-02-01T16:21:42.988Z,7.23
2023-02-01T16:23:15.725Z,7.20
2023-02-01T16:24:47.630Z,7.24
2023-02-01T16:26:19.889Z,7.22
2023-02-01T16:27:51.837Z,7.23
2023-02-01T16:29:23.742Z,7.23
2023-02-01T16:30:58.663Z,7.24
2023-02-01T16:32:30.701Z,7.20
2023-02-01T16:34:02.547Z,7.05
2023-02-01T16:35:38.701Z,7.02
2023-02-01T16:37:12.675Z,6.94
2023-02-01T16:38:44.670Z,6.92
2023-02-01T16:40:16.793Z,6.86
2023-02-01T16:41:48.731Z,6.84
2023-02-01T16:43:24.354Z,6.79
2023-02-01T16:44:56.299Z,6.73
2023-02-01T16:46:36.607Z,6.73
2023-02-01T16:48:08.518Z,6.69
2023-02-01T16:49:40.450Z,6.66
2023-02-01T16:51:13.221Z,6.62
2023-02-01T16:52:45.043Z,6.59
2023-02-01T16:54:17.216Z,6.57
2023-02-01T16:55:50.731Z,6.52
2023-02-01T16:57:27.244Z,6.47
2023-02-01T16:58:59.220Z,6.39
2023-02-01T17:00:32.443Z,6.34
2023-02-01T17:02:04.473Z,6.34
2023-02-01T17:03:36.442Z,6.35
2023-02-01T17:05:08.543Z,6.35
2023-02-01T17:06:40.584Z,6.31
2023-02-01T17:08:12.481Z,6.30
2023-02-01T17:09:44.250Z,6.27
2023-02-01T17:11:17.178Z,6.29
2023-02-01T17:12:48.996Z,6.27
2023-02-01T17:14:22.755Z,6.27
2023-02-01T17:16:05.046Z,6.25
2023-02-01T17:17:39.361Z,6.22
2023-02-01T17:19:13.809Z,6.20
2023-02-01T17:20:48.043Z,6.07
2023-02-01T17:22:23.560Z,5.91
2023-02-01T17:23:55.935Z,5.74
2023-02-01T17:25:28.418Z,5.61
2023-02-01T17:27:00.618Z,5.44
2023-02-01T17:28:32.428Z,5.26
2023-02-01T17:30:04.574Z,5.07
2023-02-01T17:31:37.988Z,4.92
2023-02-01T17:33:22.232Z,4.79
2023-02-01T17:34:54.565Z,4.63
2023-02-01T17:36:27.276Z,4.46
2023-02-01T17:37:59.203Z,4.36
2023-02-01T17:39:49.274Z,4.29
2023-02-01T17:41:21.246Z,4.20
2023-02-01T17:42:58.151Z,4.09
2023-02-01T18:49:55.403Z,2.71
2023-02-01T18:51:27.283Z,2.64
2023-02-01T18:52:59.966Z,2.59
2023-02-01T18:54:32.096Z,2.52
2023-02-01T18:56:04.039Z,2.44
2023-02-01T18:57:35.989Z,2.39
2023-02-01T18:59:09.515Z,2.39
2023-02-01T19:00:42.101Z,2.41
2023-02-01T19:02:14.035Z,2.38
2023-02-01T19:03:48.514Z,2.40
2023-02-01T19:05:25.653Z,2.43
2023-02-01T19:06:59.768Z,2.46
2023-02-01T19:08:32.394Z,2.47
2023-02-01T19:10:06.591Z,2.48
2023-02-01T19:11:38.524Z,2.44
2023-02-01T19:13:13.577Z,2.40
2023-02-01T19:14:45.462Z,2.39
2023-02-01T19:16:17.389Z,2.37
2023-02-01T19:17:50.068Z,2.37
2023-02-01T19:19:22.069Z,2.38
2023-02-01T19:20:55.371Z,2.39
2023-02-01T19:22:27.682Z,2.41
2023-02-01T19:23:59.666Z,2.40
2023-02-01T19:25:31.670Z,2.39
2023-02-01T19:27:03.559Z,2.38
2023-02-01T19:28:35.401Z,2.38
2023-02-01T19:30:07.773Z,2.38
2023-02-01T19:31:39.772Z,2.36
2023-02-01T19:33:11.667Z,2.37
2023-02-01T19:34:43.571Z,2.33
2023-02-01T19:36:15.457Z,2.34
2023-02-01T19:37:47.934Z,2.33
2023-02-01T19:39:25.320Z,2.25
2023-02-01T19:40:57.303Z,2.14
2023-02-01T19:42:29.362Z,2.05
2023-02-01T19:44:01.373Z,2.00
2023-02-01T19:45:33.219Z,1.97
2023-02-01T19:47:05.279Z,1.94
2023-02-01T19:48:37.179Z,1.92
2023-02-01T19:50:11.712Z,1.90
2023-02-01T19:51:45.130Z,1.86
2023-02-01T19:53:17.197Z,1.86
2023-02-01T19:54:49.062Z,1.86
2023-02-01T19:56:20.904Z,1.85
2023-02-01T19:57:52.979Z,1.84
2023-02-01T19:59:25.184Z,1.84
2023-02-01T20:00:56.504Z,1.84
2023-02-01T20:02:29.538Z,1.77
2023-02-01T20:04:06.635Z,1.74
2023-02-01T20:05:38.537Z,1.70
2023-02-01T20:07:13.486Z,1.64
2023-02-01T20:08:45.497Z,1.57
2023-02-01T20:10:17.667Z,1.55
2023-02-01T20:11:49.834Z,1.53
2023-02-01T20:13:21.785Z,1.52
2023-02-01T20:14:55.903Z,1.52
2023-02-01T20:16:27.862Z,1.51
2023-02-01T20:19:36.023Z,1.46
2023-02-01T20:21:07.979Z,1.44
2023-02-01T20:22:39.928Z,1.38
2023-02-01T20:24:15.937Z,1.32
2023-02-01T20:25:48.738Z,1.31
2023-02-01T20:27:20.588Z,1.33
2023-02-01T20:28:52.473Z,1.34
2023-02-01T20:30:24.605Z,1.37
2023-02-01T20:31:56.523Z,1.37
2023-02-01T20:33:29.268Z,1.37
2023-02-01T20:35:01.098Z,1.36
2023-02-01T20:36:33.653Z,1.35
2023-02-01T20:38:05.448Z,1.36
2023-02-01T20:39:37.316Z,1.39
2023-02-01T20:41:09.414Z,1.40
2023-02-01T20:42:41.968Z,1.41
2023-02-01T20:44:13.839Z,1.43
2023-02-01T20:45:45.648Z,1.42
2023-02-01T20:47:17.469Z,1.45
2023-02-01T20:48:50.309Z,1.46
2023-02-01T20:50:22.103Z,1.46
2023-02-01T20:51:53.994Z,1.47
2023-02-01T20:53:27.084Z,1.50
2023-02-01T20:54:59.140Z,1.52
2023-02-01T20:56:31.027Z,1.51
2023-02-01T20:58:02.808Z,1.50
2023-02-01T20:59:34.689Z,1.51
2023-02-01T21:01:06.707Z,1.51
2023-02-01T21:02:38.652Z,1.51
2023-02-01T21:04:10.487Z,1.50
2023-02-01T21:05:52.158Z,1.47
2023-02-01T21:07:24.240Z,1.45
2023-02-01T21:08:56.082Z,1.41
2023-02-01T21:10:27.847Z,1.41
2023-02-01T21:11:59.730Z,1.44
2023-02-01T21:13:32.870Z,1.44
2023-02-01T21:15:05.745Z,1.45
2023-02-01T21:16:37.728Z,1.41
2023-02-01T21:18:14.277Z,1.39
2023-02-01T21:19:46.218Z,1.42
2023-02-01T21:21:19.265Z,1.45
2023-02-01T21:22:51.202Z,1.48
2023-02-01T21:24:23.212Z,1.48
2023-02-01T21:25:55.158Z,1.42
2023-02-01T21:27:27.028Z,1.39
2023-02-01T21:28:58.853Z,1.39
2023-02-01T21:30:30.728Z,1.40
2023-02-01T21:32:02.752Z,1.42
2023-02-01T21:33:34.889Z,1.46
2023-02-01T21:35:07.605Z,1.52
2023-02-01T21:36:39.510Z,1.57
2023-02-01T21:38:11.508Z,1.61
2023-02-01T21:39:43.391Z,1.65
2023-02-01T21:41:33.545Z,1.69
2023-02-01T21:43:05.481Z,1.74
2023-02-01T21:44:37.401Z,1.77
2023-02-01T21:46:09.393Z,1.81
2023-02-01T21:47:41.267Z,1.81
2023-02-01T21:49:13.228Z,1.82
2023-02-01T21:50:45.140Z,1.82
2023-02-01T21:52:17.657Z,1.83
2023-02-01T21:53:49.564Z,1.82
2023-02-01T21:55:21.505Z,1.81
2023-02-01T21:56:53.541Z,1.85
2023-02-01T21:58:25.347Z,1.84
2023-02-01T21:59:59.121Z,1.80
2023-02-01T22:01:31.064Z,1.74
2023-02-01T22:03:02.960Z,1.79
2023-02-01T22:04:34.833Z,1.94
2023-02-01T22:06:06.884Z,2.06
2023-02-01T22:07:38.843Z,2.20
2023-02-01T22:09:13.980Z,2.31
2023-02-01T22:10:48.302Z,2.33
2023-02-01T22:12:20.175Z,2.38
2023-02-01T22:13:52.083Z,2.43
2023-02-01T22:15:24.790Z,2.46
2023-02-01T22:16:56.919Z,2.50
2023-02-01T22:18:30.362Z,2.55
2023-02-01T22:20:02.213Z,2.62
2023-02-01T22:21:34.191Z,2.74
2023-02-01T22:23:06.032Z,2.84
2023-02-01T22:24:37.890Z,2.96
2023-02-01T22:26:10.825Z,3.09
2023-02-01T22:28:31.840Z,3.21
2023-02-01T22:29:35.314Z,3.34
2023-02-01T22:31:07.932Z,3.43
2023-02-01T22:32:40.187Z,3.54
2023-02-01T22:34:12.164Z,3.60
2023-02-01T22:35:44.926Z,3.69
2023-02-01T22:37:17.082Z,3.73
2023-02-01T22:38:48.996Z,3.82